sensor_id;sensor_type;location;lat;lon;timestamp;P1;durP1;ratioP1;P2;durP2;ratioP2
5393;SDS011;2720;52.396;10.064;2023-03-01T00:00:53;5.40;;;3.88;;
5393;SDS011;2720;52.396;10.064;2023-03-01T00:03:20;4.80;;;3.25;;
5393;SDS011;2720;52.396;10.064;2023-03-01T00:05:47;6.70;;;3.58;;
5393;SDS011;2720;52.396;10.064;2023-03-01T00:08:14;5.38;;;3.50;;
5393;SDS011;2720;52.396;10.064;2023-03-01T00:10:42;4.35;;;3.10;;
5393;SDS011;2720;52.396;10.064;2023-03-01T00:13:09;8.70;;;3.60;;
5393;SDS011;2720;52.396;10.064;2023-03-01T00:15:38;4.65;;;4.00;;
5393;SDS011;2720;52.396;10.064;2023-03-01T00:18:06;7.47;;;3.95;;
5393;SDS011;2720;52.396;10.064;2023-03-01T00:20:33;4.57;;;3.50;;
5393;SDS011;2720;52.396;10.064;2023-03-01T00:23:00;8.80;;;4.53;;
5393;SDS011;2720;52.396;10.064;2023-03-01T00:25:27;8.75;;;3.78;;
5393;SDS011;2720;52.396;10.064;2023-03-01T00:27:56;10.98;;;5.22;;
5393;SDS011;2720;52.396;10.064;2023-03-01T00:30:23;7.40;;;4.63;;
5393;SDS011;2720;52.396;10.064;2023-03-01T00:32:50;9.50;;;4.82;;
5393;SDS011;2720;52.396;10.064;2023-03-01T00:35:16;6.90;;;3.90;;
5393;SDS011;2720;52.396;10.064;2023-03-01T00:37:43;9.05;;;4.30;;
5393;SDS011;2720;52.396;10.064;2023-03-01T00:40:11;7.38;;;4.60;;
5393;SDS011;2720;52.396;10.064;2023-03-01T00:42:41;11.38;;;5.25;;
5393;SDS011;2720;52.396;10.064;2023-03-01T00:45:09;9.23;;;4.45;;
5393;SDS011;2720;52.396;10.064;2023-03-01T00:47:38;8.60;;;4.55;;
5393;SDS011;2720;52.396;10.064;2023-03-01T00:50:05;5.03;;;3.20;;
5393;SDS011;2720;52.396;10.064;2023-03-01T00:52:33;4.82;;;3.60;;
5393;SDS011;2720;52.396;10.064;2023-03-01T00:55:00;8.00;;;3.95;;
5393;SDS011;2720;52.396;10.064;2023-03-01T00:57:27;8.20;;;3.80;;
5393;SDS011;2720;52.396;10.064;2023-03-01T00:59:54;5.93;;;4.13;;
5393;SDS011;2720;52.396;10.064;2023-03-01T01:02:22;11.95;;;4.10;;
5393;SDS011;2720;52.396;10.064;2023-03-01T01:04:49;5.15;;;3.83;;
5393;SDS011;2720;52.396;10.064;2023-03-01T01:07:16;12.43;;;5.57;;
5393;SDS011;2720;52.396;10.064;2023-03-01T01:09:45;10.25;;;3.80;;
5393;SDS011;2720;52.396;10.064;2023-03-01T01:12:12;9.02;;;5.15;;
5393;SDS011;2720;52.396;10.064;2023-03-01T01:14:39;9.02;;;5.07;;
5393;SDS011;2720;52.396;10.064;2023-03-01T01:17:06;12.38;;;4.60;;
5393;SDS011;2720;52.396;10.064;2023-03-01T01:19:34;8.60;;;4.20;;
5393;SDS011;2720;52.396;10.064;2023-03-01T01:22:03;5.57;;;4.03;;
5393;SDS011;2720;52.396;10.064;2023-03-01T01:24:31;5.32;;;3.70;;
5393;SDS011;2720;52.396;10.064;2023-03-01T01:26:59;6.38;;;3.53;;
5393;SDS011;2720;52.396;10.064;2023-03-01T01:29:27;8.35;;;4.70;;
5393;SDS011;2720;52.396;10.064;2023-03-01T01:31:56;11.75;;;4.43;;
5393;SDS011;2720;52.396;10.064;2023-03-01T01:34:24;7.85;;;4.32;;
5393;SDS011;2720;52.396;10.064;2023-03-01T01:36:53;9.88;;;4.45;;
5393;SDS011;2720;52.396;10.064;2023-03-01T01:39:20;13.68;;;4.88;;
5393;SDS011;2720;52.396;10.064;2023-03-01T01:41:47;9.05;;;4.22;;
5393;SDS011;2720;52.396;10.064;2023-03-01T01:44:16;7.35;;;3.90;;
5393;SDS011;2720;52.396;10.064;2023-03-01T01:46:44;11.77;;;4.72;;
5393;SDS011;2720;52.396;10.064;2023-03-01T01:49:16;14.82;;;5.90;;
5393;SDS011;2720;52.396;10.064;2023-03-01T01:51:45;5.75;;;3.78;;
5393;SDS011;2720;52.396;10.064;2023-03-01T01:54:16;8.57;;;4.20;;
5393;SDS011;2720;52.396;10.064;2023-03-01T01:56:46;7.32;;;3.90;;
5393;SDS011;2720;52.396;10.064;2023-03-01T01:59:15;6.75;;;4.05;;
5393;SDS011;2720;52.396;10.064;2023-03-01T02:01:42;9.25;;;4.40;;
5393;SDS011;2720;52.396;10.064;2023-03-01T02:04:10;6.85;;;4.35;;
5393;SDS011;2720;52.396;10.064;2023-03-01T02:06:39;11.10;;;3.75;;
5393;SDS011;2720;52.396;10.064;2023-03-01T02:09:10;10.40;;;4.90;;
5393;SDS011;2720;52.396;10.064;2023-03-01T02:11:40;8.32;;;4.43;;
5393;SDS011;2720;52.396;10.064;2023-03-01T02:14:07;9.68;;;4.70;;
5393;SDS011;2720;52.396;10.064;2023-03-01T02:16:34;5.30;;;3.95;;
5393;SDS011;2720;52.396;10.064;2023-03-01T02:19:02;6.90;;;3.85;;
5393;SDS011;2720;52.396;10.064;2023-03-01T02:21:34;8.95;;;4.80;;
5393;SDS011;2720;52.396;10.064;2023-03-01T02:24:05;9.27;;;4.68;;
5393;SDS011;2720;52.396;10.064;2023-03-01T02:26:36;7.35;;;4.78;;
5393;SDS011;2720;52.396;10.064;2023-03-01T02:29:05;9.38;;;4.13;;
5393;SDS011;2720;52.396;10.064;2023-03-01T02:31:33;9.80;;;4.60;;
5393;SDS011;2720;52.396;10.064;2023-03-01T02:34:11;8.07;;;4.50;;
5393;SDS011;2720;52.396;10.064;2023-03-01T02:36:39;9.00;;;5.85;;
5393;SDS011;2720;52.396;10.064;2023-03-01T02:39:08;11.32;;;4.85;;
5393;SDS011;2720;52.396;10.064;2023-03-01T02:41:39;9.23;;;4.30;;
5393;SDS011;2720;52.396;10.064;2023-03-01T02:44:09;11.20;;;4.60;;
5393;SDS011;2720;52.396;10.064;2023-03-01T02:46:41;7.22;;;3.58;;
5393;SDS011;2720;52.396;10.064;2023-03-01T02:49:19;12.23;;;4.47;;
5393;SDS011;2720;52.396;10.064;2023-03-01T02:51:48;10.95;;;4.82;;
5393;SDS011;2720;52.396;10.064;2023-03-01T02:54:21;9.57;;;4.72;;
5393;SDS011;2720;52.396;10.064;2023-03-01T02:56:49;6.68;;;4.28;;
5393;SDS011;2720;52.396;10.064;2023-03-01T02:59:19;9.80;;;3.95;;
5393;SDS011;2720;52.396;10.064;2023-03-01T03:01:47;12.88;;;5.00;;
5393;SDS011;2720;52.396;10.064;2023-03-01T03:04:15;8.73;;;4.28;;
5393;SDS011;2720;52.396;10.064;2023-03-01T03:06:43;8.95;;;4.55;;
5393;SDS011;2720;52.396;10.064;2023-03-01T03:09:10;7.55;;;3.88;;
5393;SDS011;2720;52.396;10.064;2023-03-01T03:11:38;12.02;;;5.55;;
5393;SDS011;2720;52.396;10.064;2023-03-01T03:14:06;7.25;;;4.63;;
5393;SDS011;2720;52.396;10.064;2023-03-01T03:16:40;6.38;;;4.45;;
5393;SDS011;2720;52.396;10.064;2023-03-01T03:19:08;14.75;;;4.20;;
5393;SDS011;2720;52.396;10.064;2023-03-01T03:21:35;8.77;;;4.85;;
5393;SDS011;2720;52.396;10.064;2023-03-01T03:24:03;15.57;;;4.45;;
5393;SDS011;2720;52.396;10.064;2023-03-01T03:26:30;9.63;;;4.70;;
5393;SDS011;2720;52.396;10.064;2023-03-01T03:28:57;7.53;;;4.65;;
5393;SDS011;2720;52.396;10.064;2023-03-01T03:31:24;12.23;;;6.25;;
5393;SDS011;2720;52.396;10.064;2023-03-01T03:33:53;11.18;;;5.53;;
5393;SDS011;2720;52.396;10.064;2023-03-01T03:36:21;10.38;;;5.55;;
5393;SDS011;2720;52.396;10.064;2023-03-01T03:38:50;12.23;;;4.93;;
5393;SDS011;2720;52.396;10.064;2023-03-01T03:41:17;8.32;;;4.97;;
5393;SDS011;2720;52.396;10.064;2023-03-01T03:43:44;8.25;;;4.88;;
5393;SDS011;2720;52.396;10.064;2023-03-01T03:46:11;12.82;;;4.50;;
5393;SDS011;2720;52.396;10.064;2023-03-01T03:48:41;15.57;;;6.28;;
5393;SDS011;2720;52.396;10.064;2023-03-01T03:51:11;8.88;;;5.20;;
5393;SDS011;2720;52.396;10.064;2023-03-01T03:53:39;11.60;;;5.85;;
5393;SDS011;2720;52.396;10.064;2023-03-01T03:56:06;14.18;;;6.43;;
5393;SDS011;2720;52.396;10.064;2023-03-01T03:58:34;20.77;;;7.78;;
5393;SDS011;2720;52.396;10.064;2023-03-01T04:01:01;11.40;;;5.55;;
5393;SDS011;2720;52.396;10.064;2023-03-01T04:03:28;11.85;;;6.53;;
5393;SDS011;2720;52.396;10.064;2023-03-01T04:05:57;17.38;;;5.65;;
5393;SDS011;2720;52.396;10.064;2023-03-01T04:08:26;12.13;;;4.88;;
5393;SDS011;2720;52.396;10.064;2023-03-01T04:10:56;8.73;;;4.47;;
5393;SDS011;2720;52.396;10.064;2023-03-01T04:13:25;8.25;;;5.00;;
5393;SDS011;2720;52.396;10.064;2023-03-01T04:15:53;10.02;;;5.28;;
5393;SDS011;2720;52.396;10.064;2023-03-01T04:18:21;14.65;;;5.70;;
5393;SDS011;2720;52.396;10.064;2023-03-01T04:20:49;8.73;;;5.97;;
5393;SDS011;2720;52.396;10.064;2023-03-01T04:23:20;14.70;;;6.22;;
5393;SDS011;2720;52.396;10.064;2023-03-01T04:25:49;14.20;;;5.47;;
5393;SDS011;2720;52.396;10.064;2023-03-01T04:28:19;7.47;;;4.85;;
5393;SDS011;2720;52.396;10.064;2023-03-01T04:30:47;10.70;;;5.55;;
5393;SDS011;2720;52.396;10.064;2023-03-01T04:33:14;11.95;;;5.57;;
5393;SDS011;2720;52.396;10.064;2023-03-01T04:35:41;9.98;;;4.63;;
5393;SDS011;2720;52.396;10.064;2023-03-01T04:38:08;11.95;;;6.53;;
5393;SDS011;2720;52.396;10.064;2023-03-01T04:40:35;10.00;;;5.97;;
5393;SDS011;2720;52.396;10.064;2023-03-01T04:43:04;12.45;;;6.68;;
5393;SDS011;2720;52.396;10.064;2023-03-01T04:45:31;12.80;;;5.57;;
5393;SDS011;2720;52.396;10.064;2023-03-01T04:48:00;14.73;;;6.35;;
5393;SDS011;2720;52.396;10.064;2023-03-01T04:50:27;10.30;;;5.30;;
5393;SDS011;2720;52.396;10.064;2023-03-01T04:52:55;10.48;;;5.03;;
5393;SDS011;2720;52.396;10.064;2023-03-01T04:55:23;11.95;;;5.05;;
5393;SDS011;2720;52.396;10.064;2023-03-01T04:57:51;13.80;;;5.88;;
5393;SDS011;2720;52.396;10.064;2023-03-01T05:00:21;11.35;;;5.32;;
5393;SDS011;2720;52.396;10.064;2023-03-01T05:02:49;13.55;;;5.70;;
5393;SDS011;2720;52.396;10.064;2023-03-01T05:05:23;8.27;;;5.15;;
5393;SDS011;2720;52.396;10.064;2023-03-01T05:07:55;11.65;;;5.07;;
5393;SDS011;2720;52.396;10.064;2023-03-01T05:10:24;9.00;;;4.70;;
5393;SDS011;2720;52.396;10.064;2023-03-01T05:12:54;7.00;;;4.10;;
5393;SDS011;2720;52.396;10.064;2023-03-01T05:15:23;9.38;;;4.95;;
5393;SDS011;2720;52.396;10.064;2023-03-01T05:17:52;7.97;;;4.28;;
5393;SDS011;2720;52.396;10.064;2023-03-01T05:20:20;15.10;;;5.60;;
5393;SDS011;2720;52.396;10.064;2023-03-01T05:22:48;9.30;;;4.95;;
5393;SDS011;2720;52.396;10.064;2023-03-01T05:25:15;9.68;;;4.93;;
5393;SDS011;2720;52.396;10.064;2023-03-01T05:27:43;11.95;;;5.35;;
5393;SDS011;2720;52.396;10.064;2023-03-01T05:30:10;17.05;;;5.55;;
5393;SDS011;2720;52.396;10.064;2023-03-01T05:32:43;9.13;;;5.75;;
5393;SDS011;2720;52.396;10.064;2023-03-01T05:35:12;12.75;;;6.13;;
5393;SDS011;2720;52.396;10.064;2023-03-01T05:37:41;13.50;;;5.20;;
5393;SDS011;2720;52.396;10.064;2023-03-01T05:40:09;9.10;;;5.05;;
5393;SDS011;2720;52.396;10.064;2023-03-01T05:42:41;11.32;;;5.70;;
5393;SDS011;2720;52.396;10.064;2023-03-01T05:45:12;8.05;;;4.38;;
5393;SDS011;2720;52.396;10.064;2023-03-01T05:47:40;10.32;;;5.25;;
5393;SDS011;2720;52.396;10.064;2023-03-01T05:50:10;9.07;;;5.32;;
5393;SDS011;2720;52.396;10.064;2023-03-01T05:52:38;9.80;;;5.75;;
5393;SDS011;2720;52.396;10.064;2023-03-01T05:55:06;9.45;;;5.47;;
5393;SDS011;2720;52.396;10.064;2023-03-01T05:57:34;8.73;;;5.00;;
5393;SDS011;2720;52.396;10.064;2023-03-01T06:00:01;8.23;;;4.55;;
5393;SDS011;2720;52.396;10.064;2023-03-01T06:02:28;12.57;;;5.97;;
5393;SDS011;2720;52.396;10.064;2023-03-01T06:04:56;22.00;;;7.75;;
5393;SDS011;2720;52.396;10.064;2023-03-01T06:07:23;15.20;;;6.85;;
5393;SDS011;2720;52.396;10.064;2023-03-01T06:09:50;17.92;;;6.28;;
5393;SDS011;2720;52.396;10.064;2023-03-01T06:12:17;19.27;;;9.40;;
5393;SDS011;2720;52.396;10.064;2023-03-01T06:14:44;23.02;;;9.70;;
5393;SDS011;2720;52.396;10.064;2023-03-01T06:17:13;30.50;;;9.98;;
5393;SDS011;2720;52.396;10.064;2023-03-01T06:19:40;18.52;;;8.65;;
5393;SDS011;2720;52.396;10.064;2023-03-01T06:22:08;9.48;;;6.20;;
5393;SDS011;2720;52.396;10.064;2023-03-01T06:24:35;11.70;;;6.10;;
5393;SDS011;2720;52.396;10.064;2023-03-01T06:27:02;14.45;;;6.70;;
5393;SDS011;2720;52.396;10.064;2023-03-01T06:29:29;8.77;;;6.00;;
5393;SDS011;2720;52.396;10.064;2023-03-01T06:31:57;7.78;;;4.82;;
5393;SDS011;2720;52.396;10.064;2023-03-01T06:34:24;15.40;;;7.07;;
5393;SDS011;2720;52.396;10.064;2023-03-01T06:36:51;18.23;;;5.90;;
5393;SDS011;2720;52.396;10.064;2023-03-01T06:39:19;11.95;;;5.10;;
5393;SDS011;2720;52.396;10.064;2023-03-01T06:41:46;6.65;;;5.80;;
5393;SDS011;2720;52.396;10.064;2023-03-01T06:44:13;10.60;;;5.78;;
5393;SDS011;2720;52.396;10.064;2023-03-01T06:46:40;7.68;;;4.85;;
5393;SDS011;2720;52.396;10.064;2023-03-01T06:49:07;14.05;;;5.68;;
5393;SDS011;2720;52.396;10.064;2023-03-01T06:51:34;10.82;;;6.05;;
5393;SDS011;2720;52.396;10.064;2023-03-01T06:54:02;8.27;;;4.95;;
5393;SDS011;2720;52.396;10.064;2023-03-01T06:56:31;16.65;;;6.30;;
5393;SDS011;2720;52.396;10.064;2023-03-01T06:58:58;13.40;;;5.15;;
5393;SDS011;2720;52.396;10.064;2023-03-01T07:01:25;19.75;;;6.75;;
5393;SDS011;2720;52.396;10.064;2023-03-01T07:03:52;8.98;;;5.97;;
5393;SDS011;2720;52.396;10.064;2023-03-01T07:06:19;10.55;;;6.18;;
5393;SDS011;2720;52.396;10.064;2023-03-01T07:08:46;13.38;;;6.45;;
5393;SDS011;2720;52.396;10.064;2023-03-01T07:11:13;15.30;;;7.03;;
5393;SDS011;2720;52.396;10.064;2023-03-01T07:13:42;18.23;;;7.88;;
5393;SDS011;2720;52.396;10.064;2023-03-01T07:16:09;17.15;;;8.02;;
5393;SDS011;2720;52.396;10.064;2023-03-01T07:18:36;18.70;;;7.57;;
5393;SDS011;2720;52.396;10.064;2023-03-01T07:21:04;19.02;;;9.07;;
5393;SDS011;2720;52.396;10.064;2023-03-01T07:23:31;13.23;;;6.82;;
5393;SDS011;2720;52.396;10.064;2023-03-01T07:25:59;13.13;;;7.13;;
5393;SDS011;2720;52.396;10.064;2023-03-01T07:28:26;14.75;;;7.45;;
5393;SDS011;2720;52.396;10.064;2023-03-01T07:30:55;12.27;;;7.18;;
5393;SDS011;2720;52.396;10.064;2023-03-01T07:33:27;13.52;;;6.55;;
5393;SDS011;2720;52.396;10.064;2023-03-01T07:35:57;15.35;;;7.90;;
5393;SDS011;2720;52.396;10.064;2023-03-01T07:38:24;14.23;;;8.07;;
5393;SDS011;2720;52.396;10.064;2023-03-01T07:40:52;20.73;;;9.80;;
5393;SDS011;2720;52.396;10.064;2023-03-01T07:43:19;23.23;;;10.13;;
5393;SDS011;2720;52.396;10.064;2023-03-01T07:45:46;19.13;;;9.82;;
5393;SDS011;2720;52.396;10.064;2023-03-01T07:48:14;20.30;;;9.38;;
5393;SDS011;2720;52.396;10.064;2023-03-01T07:50:41;20.77;;;10.93;;
5393;SDS011;2720;52.396;10.064;2023-03-01T07:53:08;17.73;;;9.70;;
5393;SDS011;2720;52.396;10.064;2023-03-01T07:55:36;19.40;;;8.90;;
5393;SDS011;2720;52.396;10.064;2023-03-01T07:58:03;16.38;;;8.23;;
5393;SDS011;2720;52.396;10.064;2023-03-01T08:00:30;20.02;;;8.32;;
5393;SDS011;2720;52.396;10.064;2023-03-01T08:02:58;19.08;;;9.23;;
5393;SDS011;2720;52.396;10.064;2023-03-01T08:05:28;12.95;;;7.45;;
5393;SDS011;2720;52.396;10.064;2023-03-01T08:07:55;18.23;;;8.75;;
5393;SDS011;2720;52.396;10.064;2023-03-01T08:10:22;25.50;;;9.48;;
5393;SDS011;2720;52.396;10.064;2023-03-01T08:12:50;18.02;;;8.57;;
5393;SDS011;2720;52.396;10.064;2023-03-01T08:15:18;18.85;;;8.65;;
5393;SDS011;2720;52.396;10.064;2023-03-01T08:17:45;12.52;;;7.38;;
5393;SDS011;2720;52.396;10.064;2023-03-01T08:20:12;18.30;;;8.20;;
5393;SDS011;2720;52.396;10.064;2023-03-01T08:22:40;14.10;;;7.75;;
5393;SDS011;2720;52.396;10.064;2023-03-01T08:25:07;16.02;;;7.47;;
5393;SDS011;2720;52.396;10.064;2023-03-01T08:27:34;14.88;;;6.97;;
5393;SDS011;2720;52.396;10.064;2023-03-01T08:30:02;10.43;;;5.75;;
5393;SDS011;2720;52.396;10.064;2023-03-01T08:32:29;9.67;;;5.30;;
5393;SDS011;2720;52.396;10.064;2023-03-01T08:35:01;11.83;;;6.20;;
5393;SDS011;2720;52.396;10.064;2023-03-01T08:37:28;13.23;;;6.10;;
5393;SDS011;2720;52.396;10.064;2023-03-01T08:39:57;13.60;;;5.43;;
5393;SDS011;2720;52.396;10.064;2023-03-01T08:42:24;6.37;;;4.63;;
5393;SDS011;2720;52.396;10.064;2023-03-01T08:44:51;15.47;;;5.63;;
5393;SDS011;2720;52.396;10.064;2023-03-01T08:47:19;11.23;;;4.60;;
5393;SDS011;2720;52.396;10.064;2023-03-01T08:49:46;13.20;;;4.87;;
5393;SDS011;2720;52.396;10.064;2023-03-01T08:52:12;7.83;;;4.47;;
5393;SDS011;2720;52.396;10.064;2023-03-01T08:54:39;5.70;;;4.30;;
5393;SDS011;2720;52.396;10.064;2023-03-01T08:57:08;8.23;;;4.50;;
5393;SDS011;2720;52.396;10.064;2023-03-01T08:59:35;7.00;;;4.17;;
5393;SDS011;2720;52.396;10.064;2023-03-01T09:02:02;7.87;;;4.10;;
5393;SDS011;2720;52.396;10.064;2023-03-01T09:04:29;8.33;;;4.43;;
5393;SDS011;2720;52.396;10.064;2023-03-01T09:06:56;9.47;;;3.93;;
5393;SDS011;2720;52.396;10.064;2023-03-01T09:09:24;10.23;;;4.40;;
5393;SDS011;2720;52.396;10.064;2023-03-01T09:11:51;7.13;;;4.17;;
5393;SDS011;2720;52.396;10.064;2023-03-01T09:14:19;11.10;;;3.60;;
5393;SDS011;2720;52.396;10.064;2023-03-01T09:16:46;9.40;;;4.60;;
5393;SDS011;2720;52.396;10.064;2023-03-01T09:19:13;14.33;;;3.80;;
5393;SDS011;2720;52.396;10.064;2023-03-01T09:21:40;9.23;;;3.90;;
5393;SDS011;2720;52.396;10.064;2023-03-01T09:24:17;4.90;;;3.50;;
5393;SDS011;2720;52.396;10.064;2023-03-01T09:26:46;10.47;;;3.70;;
5393;SDS011;2720;52.396;10.064;2023-03-01T09:29:13;7.93;;;3.83;;
5393;SDS011;2720;52.396;10.064;2023-03-01T09:31:42;5.77;;;3.27;;
5393;SDS011;2720;52.396;10.064;2023-03-01T09:34:09;8.87;;;4.37;;
5393;SDS011;2720;52.396;10.064;2023-03-01T09:36:36;6.50;;;3.60;;
5393;SDS011;2720;52.396;10.064;2023-03-01T09:39:04;9.20;;;4.30;;
5393;SDS011;2720;52.396;10.064;2023-03-01T09:44:23;10.20;;;5.20;;
5393;SDS011;2720;52.396;10.064;2023-03-01T09:46:57;6.77;;;4.00;;
5393;SDS011;2720;52.396;10.064;2023-03-01T09:49:26;7.50;;;3.80;;
5393;SDS011;2720;52.396;10.064;2023-03-01T09:51:57;7.20;;;4.20;;
5393;SDS011;2720;52.396;10.064;2023-03-01T09:54:27;8.60;;;3.83;;
5393;SDS011;2720;52.396;10.064;2023-03-01T09:56:58;7.93;;;3.13;;
5393;SDS011;2720;52.396;10.064;2023-03-01T09:59:33;10.23;;;3.70;;
5393;SDS011;2720;52.396;10.064;2023-03-01T10:02:18;7.20;;;4.70;;
5393;SDS011;2720;52.396;10.064;2023-03-01T10:04:51;9.90;;;3.50;;
5393;SDS011;2720;52.396;10.064;2023-03-01T10:07:24;4.70;;;2.80;;
5393;SDS011;2720;52.396;10.064;2023-03-01T10:09:52;4.60;;;3.10;;
5393;SDS011;2720;52.396;10.064;2023-03-01T10:12:20;8.30;;;3.83;;
5393;SDS011;2720;52.396;10.064;2023-03-01T10:14:51;7.90;;;4.13;;
5393;SDS011;2720;52.396;10.064;2023-03-01T10:17:26;4.43;;;3.17;;
5393;SDS011;2720;52.396;10.064;2023-03-01T10:20:08;6.53;;;3.67;;
5393;SDS011;2720;52.396;10.064;2023-03-01T10:22:41;8.70;;;3.20;;
5393;SDS011;2720;52.396;10.064;2023-03-01T10:25:13;4.90;;;3.07;;
5393;SDS011;2720;52.396;10.064;2023-03-01T10:27:43;9.80;;;3.90;;
5393;SDS011;2720;52.396;10.064;2023-03-01T10:30:18;9.33;;;3.53;;
5393;SDS011;2720;52.396;10.064;2023-03-01T10:32:49;6.50;;;3.20;;
5393;SDS011;2720;52.396;10.064;2023-03-01T10:35:20;6.53;;;3.50;;
5393;SDS011;2720;52.396;10.064;2023-03-01T10:37:58;7.20;;;3.53;;
5393;SDS011;2720;52.396;10.064;2023-03-01T10:40:30;6.17;;;3.40;;
5393;SDS011;2720;52.396;10.064;2023-03-01T10:42:58;8.10;;;4.17;;
5393;SDS011;2720;52.396;10.064;2023-03-01T10:45:30;8.70;;;3.33;;
5393;SDS011;2720;52.396;10.064;2023-03-01T10:48:12;10.47;;;3.90;;
5393;SDS011;2720;52.396;10.064;2023-03-01T10:50:40;5.23;;;3.70;;
5393;SDS011;2720;52.396;10.064;2023-03-01T10:53:18;7.00;;;2.80;;
5393;SDS011;2720;52.396;10.064;2023-03-01T10:56:02;6.30;;;3.53;;
5393;SDS011;2720;52.396;10.064;2023-03-01T10:58:31;5.40;;;3.43;;
5393;SDS011;2720;52.396;10.064;2023-03-01T11:01:00;7.70;;;4.10;;
5393;SDS011;2720;52.396;10.064;2023-03-01T11:03:31;4.37;;;3.50;;
5393;SDS011;2720;52.396;10.064;2023-03-01T11:06:01;8.03;;;3.70;;
5393;SDS011;2720;52.396;10.064;2023-03-01T11:08:32;7.70;;;2.93;;
5393;SDS011;2720;52.396;10.064;2023-03-01T11:11:05;7.30;;;3.20;;
5393;SDS011;2720;52.396;10.064;2023-03-01T11:13:36;7.20;;;3.73;;
5393;SDS011;2720;52.396;10.064;2023-03-01T11:16:05;6.93;;;3.20;;
5393;SDS011;2720;52.396;10.064;2023-03-01T11:18:37;5.53;;;3.00;;
5393;SDS011;2720;52.396;10.064;2023-03-01T11:21:04;7.67;;;3.70;;
5393;SDS011;2720;52.396;10.064;2023-03-01T11:23:33;4.20;;;3.50;;
5393;SDS011;2720;52.396;10.064;2023-03-01T11:26:05;4.60;;;2.80;;
5393;SDS011;2720;52.396;10.064;2023-03-01T11:28:35;9.60;;;3.90;;
5393;SDS011;2720;52.396;10.064;2023-03-01T11:31:06;7.97;;;2.87;;
5393;SDS011;2720;52.396;10.064;2023-03-01T11:33:39;8.17;;;3.30;;
5393;SDS011;2720;52.396;10.064;2023-03-01T11:36:13;11.63;;;3.30;;
5393;SDS011;2720;52.396;10.064;2023-03-01T11:38:55;3.13;;;2.77;;
5393;SDS011;2720;52.396;10.064;2023-03-01T11:41:23;3.67;;;3.20;;
5393;SDS011;2720;52.396;10.064;2023-03-01T11:43:56;6.23;;;3.20;;
5393;SDS011;2720;52.396;10.064;2023-03-01T11:49:22;5.40;;;3.13;;
5393;SDS011;2720;52.396;10.064;2023-03-01T11:52:09;5.37;;;4.13;;
5393;SDS011;2720;52.396;10.064;2023-03-01T11:54:46;9.60;;;3.47;;
5393;SDS011;2720;52.396;10.064;2023-03-01T11:57:28;4.20;;;2.53;;
5393;SDS011;2720;52.396;10.064;2023-03-01T12:00:25;2.60;;;2.30;;
5393;SDS011;2720;52.396;10.064;2023-03-01T12:06:08;10.83;;;3.80;;
5393;SDS011;2720;52.396;10.064;2023-03-01T12:08:49;3.27;;;1.93;;
5393;SDS011;2720;52.396;10.064;2023-03-01T12:11:26;4.33;;;2.20;;
5393;SDS011;2720;52.396;10.064;2023-03-01T12:14:14;2.77;;;2.03;;
5393;SDS011;2720;52.396;10.064;2023-03-01T12:17:08;3.27;;;2.23;;
5393;SDS011;2720;52.396;10.064;2023-03-01T12:20:00;4.50;;;2.60;;
5393;SDS011;2720;52.396;10.064;2023-03-01T12:22:38;5.80;;;2.60;;
5393;SDS011;2720;52.396;10.064;2023-03-01T12:25:20;4.87;;;2.50;;
5393;SDS011;2720;52.396;10.064;2023-03-01T12:27:57;6.13;;;2.33;;
5393;SDS011;2720;52.396;10.064;2023-03-01T12:30:58;4.40;;;2.70;;
5393;SDS011;2720;52.396;10.064;2023-03-01T12:33:38;4.50;;;2.70;;
5393;SDS011;2720;52.396;10.064;2023-03-01T12:36:33;5.80;;;2.43;;
5393;SDS011;2720;52.396;10.064;2023-03-01T12:39:15;4.10;;;2.03;;
5393;SDS011;2720;52.396;10.064;2023-03-01T12:42:01;5.00;;;2.50;;
5393;SDS011;2720;52.396;10.064;2023-03-01T12:44:45;4.00;;;2.20;;
5393;SDS011;2720;52.396;10.064;2023-03-01T12:47:26;3.20;;;2.20;;
5393;SDS011;2720;52.396;10.064;2023-03-01T12:50:11;2.70;;;1.93;;
5393;SDS011;2720;52.396;10.064;2023-03-01T12:52:44;3.53;;;2.00;;
5393;SDS011;2720;52.396;10.064;2023-03-01T12:55:20;7.17;;;2.10;;
5393;SDS011;2720;52.396;10.064;2023-03-01T12:57:53;6.90;;;3.00;;
5393;SDS011;2720;52.396;10.064;2023-03-01T13:00:31;2.93;;;1.80;;
5393;SDS011;2720;52.396;10.064;2023-03-01T13:03:04;11.30;;;2.73;;
5393;SDS011;2720;52.396;10.064;2023-03-01T13:05:42;4.90;;;2.30;;
5393;SDS011;2720;52.396;10.064;2023-03-01T13:08:19;4.60;;;2.60;;
5393;SDS011;2720;52.396;10.064;2023-03-01T13:10:55;4.10;;;1.87;;
5393;SDS011;2720;52.396;10.064;2023-03-01T13:13:25;2.63;;;1.90;;
5393;SDS011;2720;52.396;10.064;2023-03-01T13:15:54;3.40;;;2.43;;
5393;SDS011;2720;52.396;10.064;2023-03-01T13:21:06;3.10;;;2.17;;
5393;SDS011;2720;52.396;10.064;2023-03-01T13:23:35;3.40;;;2.43;;
5393;SDS011;2720;52.396;10.064;2023-03-01T13:26:06;7.03;;;2.20;;
5393;SDS011;2720;52.396;10.064;2023-03-01T13:28:40;6.20;;;2.70;;
5393;SDS011;2720;52.396;10.064;2023-03-01T13:34:41;2.77;;;2.20;;
5393;SDS011;2720;52.396;10.064;2023-03-01T13:37:10;2.57;;;1.70;;
5393;SDS011;2720;52.396;10.064;2023-03-01T13:39:45;4.80;;;2.63;;
5393;SDS011;2720;52.396;10.064;2023-03-01T13:42:31;3.07;;;1.80;;
5393;SDS011;2720;52.396;10.064;2023-03-01T13:45:05;3.23;;;2.23;;
5393;SDS011;2720;52.396;10.064;2023-03-01T13:47:44;2.60;;;1.70;;
5393;SDS011;2720;52.396;10.064;2023-03-01T13:50:18;2.67;;;1.90;;
5393;SDS011;2720;52.396;10.064;2023-03-01T13:52:49;3.80;;;1.80;;
5393;SDS011;2720;52.396;10.064;2023-03-01T13:55:20;3.70;;;2.00;;
5393;SDS011;2720;52.396;10.064;2023-03-01T13:57:53;2.40;;;1.77;;
5393;SDS011;2720;52.396;10.064;2023-03-01T14:00:33;5.30;;;2.60;;
5393;SDS011;2720;52.396;10.064;2023-03-01T14:03:02;3.50;;;1.70;;
5393;SDS011;2720;52.396;10.064;2023-03-01T14:05:36;5.90;;;2.40;;
5393;SDS011;2720;52.396;10.064;2023-03-01T14:08:04;1.60;;;1.50;;
5393;SDS011;2720;52.396;10.064;2023-03-01T14:10:44;3.43;;;1.87;;
5393;SDS011;2720;52.396;10.064;2023-03-01T14:13:34;2.70;;;2.20;;
5393;SDS011;2720;52.396;10.064;2023-03-01T14:16:14;5.60;;;2.33;;
5393;SDS011;2720;52.396;10.064;2023-03-01T14:18:57;2.30;;;1.60;;
5393;SDS011;2720;52.396;10.064;2023-03-01T14:21:33;3.30;;;2.20;;
5393;SDS011;2720;52.396;10.064;2023-03-01T14:24:01;4.63;;;1.67;;
5393;SDS011;2720;52.396;10.064;2023-03-01T14:26:29;3.77;;;1.73;;
5393;SDS011;2720;52.396;10.064;2023-03-01T14:29:01;7.40;;;1.50;;
5393;SDS011;2720;52.396;10.064;2023-03-01T14:31:35;4.60;;;2.20;;
5393;SDS011;2720;52.396;10.064;2023-03-01T14:34:03;3.70;;;2.27;;
5393;SDS011;2720;52.396;10.064;2023-03-01T14:36:31;5.20;;;2.00;;
5393;SDS011;2720;52.396;10.064;2023-03-01T14:38:59;4.87;;;3.03;;
5393;SDS011;2720;52.396;10.064;2023-03-01T14:41:31;4.20;;;2.60;;
5393;SDS011;2720;52.396;10.064;2023-03-01T14:44:03;5.37;;;2.87;;
5393;SDS011;2720;52.396;10.064;2023-03-01T14:46:34;4.10;;;2.73;;
5393;SDS011;2720;52.396;10.064;2023-03-01T14:49:03;3.90;;;2.70;;
5393;SDS011;2720;52.396;10.064;2023-03-01T14:51:35;6.67;;;2.60;;
5393;SDS011;2720;52.396;10.064;2023-03-01T14:54:04;3.20;;;1.90;;
5393;SDS011;2720;52.396;10.064;2023-03-01T14:56:45;1.77;;;1.37;;
5393;SDS011;2720;52.396;10.064;2023-03-01T14:59:14;5.20;;;2.63;;
5393;SDS011;2720;52.396;10.064;2023-03-01T15:01:41;6.20;;;1.73;;
5393;SDS011;2720;52.396;10.064;2023-03-01T15:04:11;2.90;;;1.80;;
5393;SDS011;2720;52.396;10.064;2023-03-01T15:06:39;2.70;;;2.10;;
5393;SDS011;2720;52.396;10.064;2023-03-01T15:09:07;2.20;;;1.60;;
5393;SDS011;2720;52.396;10.064;2023-03-01T15:11:40;4.60;;;2.07;;
5393;SDS011;2720;52.396;10.064;2023-03-01T15:17:04;6.00;;;1.73;;
5393;SDS011;2720;52.396;10.064;2023-03-01T15:19:31;2.80;;;2.00;;
5393;SDS011;2720;52.396;10.064;2023-03-01T15:21:58;4.03;;;1.93;;
5393;SDS011;2720;52.396;10.064;2023-03-01T15:24:37;3.47;;;2.20;;
5393;SDS011;2720;52.396;10.064;2023-03-01T15:27:04;3.70;;;2.20;;
5393;SDS011;2720;52.396;10.064;2023-03-01T15:29:33;2.63;;;1.77;;
5393;SDS011;2720;52.396;10.064;2023-03-01T15:32:06;3.13;;;2.30;;